Time;durP1;ratioP1;P1;durP2;ratioP2;P2;SDS_P1;SDS_P2;PMS_P1;PMS_P2;Temp;Humidity;BMP_temperature;BMP_pressure;BME280_temperature;BME280_humidity;BME280_pressure;Samples;Min_cycle;Max_cycle;Signal;HPM_P1;HPM_P2
2023/03/26 00:00:47;;;;;;;2.40;2.30;;;7.90;99.90;;;;;;4998123;28;20960;-74
2023/03/26 00:03:15;;;;;;;4.73;2.20;;;7.90;99.90;;;;;;4998277;28;20282;-74
2023/03/26 00:05:40;;;;;;;1.97;1.87;;;7.80;99.90;;;;;;4998158;28;20214;-72
2023/03/26 00:08:10;;;;;;;2.40;2.17;;;7.80;99.90;;;;;;4994187;28;20212;-74
2023/03/26 00:10:37;;;;;;;2.30;2.10;;;7.80;99.90;;;;;;4988642;28;20200;-72
2023/03/26 00:13:04;;;;;;;3.00;2.30;;;7.90;99.90;;;;;;4988074;28;20646;-74
2023/03/26 00:15:30;;;;;;;4.73;2.20;;;7.90;99.90;;;;;;4987591;28;20312;-74
2023/03/26 00:17:55;;;;;;;2.90;1.97;;;7.90;99.90;;;;;;4987241;28;20339;-72
2023/03/26 00:20:22;;;;;;;3.43;2.30;;;7.90;99.90;;;;;;4988560;28;20200;-75
2023/03/26 00:22:47;;;;;;;3.17;2.20;;;8.00;99.90;;;;;;4989321;28;20678;-72
2023/03/26 00:25:13;;;;;;;4.57;2.63;;;8.00;99.90;;;;;;4989532;28;20201;-73
2023/03/26 00:27:39;;;;;;;2.00;1.90;;;8.10;99.90;;;;;;4989325;28;20763;-74
2023/03/26 00:30:06;;;;;;;1.57;1.47;;;8.20;99.90;;;;;;4989425;28;20219;-74
2023/03/26 00:32:31;;;;;;;3.03;1.80;;;8.20;99.90;;;;;;4988098;28;20211;-73
2023/03/26 00:34:57;;;;;;;2.40;1.77;;;8.20;99.90;;;;;;4988049;28;20228;-73
2023/03/26 00:37:26;;;;;;;2.60;1.60;;;8.20;99.90;;;;;;4988072;28;20192;-73
2023/03/26 00:40:09;;;;;;;2.37;1.47;;;8.20;99.90;;;;;;4987463;28;20209;-74
2023/03/26 00:42:34;;;;;;;6.07;1.80;;;8.20;99.90;;;;;;4989078;28;20215;-73
2023/03/26 00:45:00;;;;;;;1.83;1.00;;;8.20;99.90;;;;;;4988401;28;20565;-73
2023/03/26 00:47:27;;;;;;;1.33;1.00;;;8.30;99.90;;;;;;4988363;28;20235;-72
2023/03/26 00:49:53;;;;;;;2.17;1.07;;;8.20;99.90;;;;;;4987979;28;20209;-74
2023/03/26 00:52:19;;;;;;;2.53;1.20;;;8.20;99.90;;;;;;4986391;28;20196;-76
2023/03/26 00:54:46;;;;;;;2.47;1.13;;;8.20;99.90;;;;;;4987700;28;20269;-74
2023/03/26 00:57:13;;;;;;;2.37;1.53;;;8.30;99.90;;;;;;4990298;28;20212;-75
2023/03/26 00:59:40;;;;;;;2.43;1.60;;;8.30;99.90;;;;;;4995426;28;20654;-75
2023/03/26 01:02:09;;;;;;;1.83;1.30;;;8.30;99.90;;;;;;4980597;28;20204;-75
2023/03/26 01:04:36;;;;;;;2.73;1.30;;;8.30;99.90;;;;;;4976894;28;20220;-73
2023/03/26 01:07:08;;;;;;;0.77;0.77;;;8.30;99.90;;;;;;4989019;28;20254;-72
2023/03/26 01:09:41;;;;;;;4.27;1.03;;;8.30;99.90;;;;;;4997282;28;20655;-72
2023/03/26 01:12:12;;;;;;;2.87;1.57;;;8.20;99.90;;;;;;4989636;28;20205;-73
2023/03/26 01:14:38;;;;;;;2.67;1.20;;;8.20;99.90;;;;;;4988396;28;20226;-73
2023/03/26 01:17:06;;;;;;;2.60;1.23;;;8.10;99.90;;;;;;4988212;28;20622;-73
2023/03/26 01:19:51;;;;;;;2.90;1.57;;;8.10;99.90;;;;;;4987969;28;20291;-72
2023/03/26 01:22:20;;;;;;;2.33;1.40;;;7.80;99.90;;;;;;4988688;28;20216;-72
2023/03/26 01:24:51;;;;;;;4.10;2.13;;;7.50;99.90;;;;;;4986144;28;20569;-72
2023/03/26 01:27:30;;;;;;;1.30;1.30;;;7.50;99.90;;;;;;4987504;28;20215;-73
2023/03/26 01:30:33;;;;;;;2.03;1.40;;;7.40;99.90;;;;;;4987053;28;20213;-75
2023/03/26 01:33:35;;;;;;;3.97;1.60;;;7.30;99.90;;;;;;4984989;28;20216;-73
2023/03/26 01:36:06;;;;;;;1.93;1.60;;;7.40;99.90;;;;;;4987426;28;20215;-74
2023/03/26 01:38:47;;;;;;;3.27;1.33;;;7.30;99.90;;;;;;4987506;28;20208;-74
2023/03/26 01:41:15;;;;;;;1.70;1.10;;;7.20;99.90;;;;;;4987799;28;20628;-73
2023/03/26 01:43:46;;;;;;;2.40;1.50;;;7.10;99.90;;;;;;4987259;28;20208;-72
2023/03/26 01:46:14;;;;;;;0.93;0.90;;;7.00;99.90;;;;;;4978749;28;20756;-74
2023/03/26 01:48:42;;;;;;;4.63;1.00;;;7.00;99.90;;;;;;4978320;28;20210;-72
2023/03/26 01:51:10;;;;;;;2.70;1.27;;;7.00;99.90;;;;;;4977285;28;20201;-74
2023/03/26 01:53:42;;;;;;;0.70;0.70;;;7.00;99.90;;;;;;4976641;28;20224;-73
2023/03/26 01:56:28;;;;;;;2.73;1.07;;;7.00;99.90;;;;;;4984972;28;20257;-73
2023/03/26 01:59:07;;;;;;;5.63;1.10;;;7.00;99.90;;;;;;4986958;28;20204;-73
2023/03/26 02:01:59;;;;;;;1.43;0.70;;;7.00;99.90;;;;;;4987370;28;20283;-74
2023/03/26 02:04:39;;;;;;;0.60;0.60;;;7.00;99.90;;;;;;4987171;28;20294;-72
2023/03/26 02:07:11;;;;;;;1.20;1.10;;;7.10;99.90;;;;;;4987007;28;20273;-73
2023/03/26 02:09:44;;;;;;;0.93;0.93;;;7.10;99.90;;;;;;4987276;28;20205;-71
2023/03/26 02:12:12;;;;;;;2.07;1.20;;;7.10;99.90;;;;;;4986831;28;20278;-72
2023/03/26 02:14:37;;;;;;;1.60;1.50;;;7.10;99.90;;;;;;4985857;28;20212;-70
2023/03/26 02:17:03;;;;;;;1.40;1.30;;;7.00;99.90;;;;;;4987036;28;20275;-70
2023/03/26 02:19:29;;;;;;;3.33;1.13;;;7.00;99.90;;;;;;4986405;28;20503;-73
2023/03/26 02:21:58;;;;;;;1.60;1.50;;;7.10;99.90;;;;;;4987126;28;20617;-73
2023/03/26 02:24:24;;;;;;;3.47;1.63;;;7.10;99.90;;;;;;4986453;28;20200;-73
2023/03/26 02:26:49;;;;;;;2.60;1.60;;;7.00;99.90;;;;;;4988762;28;20220;-75
2023/03/26 02:29:19;;;;;;;1.30;1.20;;;7.00;99.90;;;;;;4985637;28;20205;-73
2023/03/26 02:31:47;;;;;;;1.63;1.53;;;7.00;99.90;;;;;;4988913;28;20224;-73
2023/03/26 02:34:13;;;;;;;2.80;1.70;;;7.00;99.90;;;;;;4994889;28;20414;-73
2023/03/26 02:36:41;;;;;;;1.50;1.33;;;6.90;99.90;;;;;;4996925;28;20686;-73
2023/03/26 02:39:09;;;;;;;2.07;1.83;;;6.90;99.90;;;;;;4995882;28;20564;-73
2023/03/26 02:41:36;;;;;;;2.83;2.10;;;6.90;99.90;;;;;;4996575;28;20604;-73
2023/03/26 02:44:01;;;;;;;3.57;1.50;;;7.00;99.90;;;;;;4995417;28;20200;-73
2023/03/26 02:46:27;;;;;;;1.70;1.60;;;7.00;99.90;;;;;;4993988;28;20516;-72
2023/03/26 02:48:52;;;;;;;1.60;1.50;;;7.00;99.90;;;;;;4996546;28;20603;-74
2023/03/26 02:51:18;;;;;;;4.47;1.80;;;7.00;99.90;;;;;;4996821;28;20258;-74
2023/03/26 02:53:44;;;;;;;3.70;1.50;;;7.00;99.90;;;;;;4996385;28;20240;-74
2023/03/26 02:56:11;;;;;;;1.70;1.60;;;7.10;99.90;;;;;;4996207;28;20243;-74
2023/03/26 02:58:37;;;;;;;1.70;1.60;;;7.10;99.90;;;;;;4995429;28;20200;-74
2023/03/26 03:01:03;;;;;;;3.40;1.63;;;7.20;99.90;;;;;;4996533;28;20208;-74
2023/03/26 03:03:29;;;;;;;2.37;1.93;;;7.20;99.90;;;;;;4999519;28;20204;-73
2023/03/26 03:05:55;;;;;;;3.07;2.00;;;7.30;99.90;;;;;;5000337;28;20956;-73
2023/03/26 03:08:25;;;;;;;2.17;1.97;;;7.30;99.90;;;;;;4999355;28;20218;-73
2023/03/26 03:10:58;;;;;;;1.50;1.40;;;7.30;99.90;;;;;;4987375;28;20844;-74
2023/03/26 03:13:24;;;;;;;3.23;1.83;;;7.30;99.90;;;;;;5000621;28;20211;-71
2023/03/26 03:15:49;;;;;;;3.53;1.50;;;7.30;99.90;;;;;;4999133;28;20196;-72
2023/03/26 03:18:15;;;;;;;3.03;1.90;;;7.30;99.90;;;;;;4999354;28;20196;-73
2023/03/26 03:20:40;;;;;;;2.00;1.90;;;7.40;99.90;;;;;;4996460;28;20554;-72
2023/03/26 03:23:06;;;;;;;5.20;2.20;;;7.40;99.90;;;;;;4999288;28;20211;-72
2023/03/26 03:25:32;;;;;;;5.87;2.97;;;7.40;99.90;;;;;;4998973;28;20203;-72
2023/03/26 03:27:58;;;;;;;2.40;2.23;;;7.40;99.90;;;;;;4999316;28;20255;-72
2023/03/26 03:30:24;;;;;;;2.43;2.23;;;7.50;99.90;;;;;;4997787;28;20232;-72
2023/03/26 03:32:49;;;;;;;3.27;2.43;;;7.50;99.90;;;;;;4999275;28;20208;-71
2023/03/26 03:35:15;;;;;;;2.87;2.33;;;7.50;99.90;;;;;;4999164;28;20274;-70
2023/03/26 03:37:41;;;;;;;3.30;3.00;;;7.50;99.90;;;;;;4999422;28;20883;-72
2023/03/26 03:40:09;;;;;;;2.70;2.47;;;7.50;99.90;;;;;;4999464;28;20563;-73
2023/03/26 03:42:34;;;;;;;3.57;2.10;;;7.60;99.90;;;;;;4998113;28;20593;-73
2023/03/26 03:45:00;;;;;;;4.37;1.97;;;7.60;99.90;;;;;;4999171;28;20238;-73
2023/03/26 03:47:26;;;;;;;2.53;1.90;;;7.60;99.90;;;;;;4999111;28;20223;-73
2023/03/26 03:49:52;;;;;;;3.37;2.20;;;7.60;99.90;;;;;;4999453;28;20265;-72
2023/03/26 03:52:18;;;;;;;4.73;3.00;;;7.50;99.90;;;;;;4999743;28;20228;-73
2023/03/26 03:54:43;;;;;;;2.50;1.97;;;7.60;99.90;;;;;;4997223;28;20454;-73
2023/03/26 03:57:09;;;;;;;3.47;1.97;;;7.50;99.90;;;;;;4998596;28;20192;-75
2023/03/26 03:59:34;;;;;;;2.90;1.97;;;7.50;99.90;;;;;;4998737;28;20200;-74
2023/03/26 04:02:00;;;;;;;2.17;1.77;;;7.50;99.90;;;;;;4999209;28;20212;-75
2023/03/26 04:04:25;;;;;;;2.00;1.90;;;7.50;99.90;;;;;;4999287;28;20250;-75
2023/03/26 04:06:51;;;;;;;2.83;2.00;;;7.50;99.90;;;;;;4998967;28;20623;-74
2023/03/26 04:09:17;;;;;;;2.03;1.80;;;7.50;99.90;;;;;;4994786;28;20220;-75
2023/03/26 04:11:43;;;;;;;2.93;2.10;;;7.50;99.90;;;;;;4998769;28;20192;-75
2023/03/26 04:14:09;;;;;;;3.10;1.80;;;7.50;99.90;;;;;;4997798;28;20533;-75
2023/03/26 04:16:34;;;;;;;4.60;2.03;;;7.50;99.90;;;;;;4999169;28;20235;-74
2023/03/26 04:19:02;;;;;;;1.53;1.47;;;7.60;99.90;;;;;;4998401;28;20204;-74
2023/03/26 04:21:29;;;;;;;3.17;2.10;;;7.60;99.90;;;;;;4980269;28;20200;-74
2023/03/26 04:23:55;;;;;;;3.77;2.00;;;7.60;99.90;;;;;;4979601;28;20209;-73
2023/03/26 04:26:21;;;;;;;4.27;2.13;;;7.50;99.90;;;;;;4980773;28;20337;-74
2023/03/26 04:28:57;;;;;;;6.60;2.33;;;7.60;99.90;;;;;;4979557;28;20200;-74
2023/03/26 04:31:27;;;;;;;3.90;1.70;;;7.60;99.90;;;;;;4993771;28;20231;-73
2023/03/26 04:34:00;;;;;;;3.00;2.07;;;7.60;99.90;;;;;;4998552;28;20676;-73
2023/03/26 04:36:28;;;;;;;4.60;2.10;;;7.50;99.90;;;;;;4978482;28;20697;-74
2023/03/26 04:38:57;;;;;;;2.77;2.10;;;7.50;99.90;;;;;;4998379;28;20204;-74
2023/03/26 04:41:25;;;;;;;2.93;2.07;;;7.50;99.90;;;;;;4998287;28;20301;-74
2023/03/26 04:43:51;;;;;;;6.53;1.90;;;7.50;99.90;;;;;;4998490;28;20345;-72
2023/03/26 04:46:20;;;;;;;2.13;1.50;;;7.40;99.90;;;;;;4996612;28;20607;-71
2023/03/26 04:48:49;;;;;;;2.77;1.67;;;7.30;99.90;;;;;;4998179;28;20208;-72
2023/03/26 04:51:16;;;;;;;2.83;1.57;;;7.30;99.90;;;;;;4997241;28;20200;-72
2023/03/26 04:53:46;;;;;;;3.60;1.50;;;7.30;99.90;;;;;;4996950;28;20199;-72
2023/03/26 04:56:50;;;;;;;1.37;1.30;;;7.30;99.90;;;;;;4995491;28;20196;-72
2023/03/26 04:59:25;;;;;;;3.17;1.33;;;7.30;99.90;;;;;;4997924;28;20203;-72
2023/03/26 05:01:52;;;;;;;3.17;1.90;;;7.30;99.90;;;;;;4996238;28;20204;-72
2023/03/26 05:04:18;;;;;;;2.00;1.30;;;7.30;99.90;;;;;;4997925;28;20295;-72
2023/03/26 05:06:43;;;;;;;1.27;1.17;;;7.30;99.90;;;;;;4997485;28;20212;-72
2023/03/26 05:09:09;;;;;;;3.37;1.47;;;7.30;99.90;;;;;;4997339;28;20532;-72
2023/03/26 05:11:35;;;;;;;1.83;1.73;;;7.30;99.90;;;;;;4997685;28;20219;-71
2023/03/26 05:14:01;;;;;;;4.47;1.50;;;7.30;99.90;;;;;;4996944;28;20207;-72
2023/03/26 05:16:28;;;;;;;2.10;1.27;;;7.40;99.90;;;;;;4997486;28;20247;-72
2023/03/26 05:18:54;;;;;;;3.20;1.83;;;7.40;99.90;;;;;;4997295;28;20240;-73
2023/03/26 05:21:19;;;;;;;2.90;1.97;;;7.50;99.90;;;;;;4997290;28;21175;-73
2023/03/26 05:23:45;;;;;;;2.37;1.70;;;7.50;99.90;;;;;;4996051;28;20200;-73
2023/03/26 05:26:11;;;;;;;4.10;2.30;;;7.50;99.90;;;;;;4994868;28;20258;-73
2023/03/26 05:28:36;;;;;;;1.80;1.47;;;7.50;99.90;;;;;;4997367;28;20216;-73
2023/03/26 05:31:03;;;;;;;6.50;1.90;;;7.50;99.90;;;;;;4997115;28;20251;-74
2023/03/26 05:33:28;;;;;;;4.23;2.30;;;7.50;99.90;;;;;;4984579;28;20244;-73
2023/03/26 05:36:12;;;;;;;3.87;1.53;;;7.60;99.90;;;;;;4977805;28;20232;-73
2023/03/26 05:38:38;;;;;;;2.67;1.87;;;7.60;99.90;;;;;;4978097;28;20213;-73
2023/03/26 05:41:06;;;;;;;1.57;1.47;;;7.60;99.90;;;;;;4978042;28;20205;-73
2023/03/26 05:43:32;;;;;;;5.53;1.80;;;7.60;99.90;;;;;;4976330;28;20201;-73
2023/03/26 05:45:57;;;;;;;3.23;1.73;;;7.60;99.90;;;;;;4978219;28;20212;-73
2023/03/26 05:48:24;;;;;;;2.10;1.60;;;7.60;99.90;;;;;;4977956;28;20211;-72
2023/03/26 05:50:51;;;;;;;4.80;1.80;;;7.60;99.90;;;;;;4977926;28;20698;-71
2023/03/26 05:53:18;;;;;;;5.20;1.93;;;7.50;99.90;;;;;;4977758;28;20239;-72
2023/03/26 05:55:44;;;;;;;3.13;1.67;;;7.50;99.90;;;;;;4975993;28;20193;-72
2023/03/26 05:58:11;;;;;;;5.40;1.77;;;7.50;99.90;;;;;;4978707;28;20511;-73
2023/03/26 06:00:37;;;;;;;3.27;1.67;;;7.50;99.90;;;;;;4977847;28;20235;-73
2023/03/26 06:03:03;;;;;;;3.97;1.60;;;7.50;99.90;;;;;;4977497;28;20899;-73
2023/03/26 06:05:36;;;;;;;2.87;1.80;;;7.60;99.90;;;;;;4977740;28;20400;-73
2023/03/26 06:08:02;;;;;;;7.43;2.00;;;7.60;99.90;;;;;;4995925;28;20224;-72
2023/03/26 06:10:27;;;;;;;3.17;1.30;;;7.80;99.90;;;;;;4996536;28;20215;-73
2023/03/26 06:12:53;;;;;;;2.47;1.13;;;7.80;99.90;;;;;;4996649;28;20196;-73
2023/03/26 06:15:18;;;;;;;2.97;1.37;;;7.80;99.90;;;;;;4996709;28;20667;-73
2023/03/26 06:17:44;;;;;;;2.53;1.73;;;7.80;99.90;;;;;;4994628;28;20207;-72
2023/03/26 06:20:11;;;;;;;2.17;1.57;;;7.80;99.90;;;;;;4995224;28;20545;-73
2023/03/26 06:22:36;;;;;;;3.70;1.60;;;7.80;99.90;;;;;;4996757;28;20215;-73
2023/03/26 06:25:02;;;;;;;2.67;1.77;;;7.80;99.90;;;;;;4996504;28;20212;-73
2023/03/26 06:27:27;;;;;;;2.10;1.47;;;7.90;99.90;;;;;;4996206;28;20208;-72
2023/03/26 06:29:53;;;;;;;4.30;1.40;;;7.80;99.90;;;;;;4994341;28;20315;-73
2023/03/26 06:32:19;;;;;;;3.20;1.30;;;7.80;99.90;;;;;;4996057;28;20200;-73
2023/03/26 06:34:44;;;;;;;2.17;1.00;;;7.60;99.90;;;;;;4995331;28;20239;-74
2023/03/26 06:37:10;;;;;;;4.53;1.50;;;7.40;99.90;;;;;;4995454;28;20204;-73
2023/03/26 06:39:35;;;;;;;3.43;1.23;;;7.30;99.90;;;;;;4996665;28;20202;-73
2023/03/26 06:42:01;;;;;;;1.93;1.43;;;7.30;99.90;;;;;;4995462;28;20597;-73
2023/03/26 06:44:26;;;;;;;2.27;1.60;;;7.20;99.90;;;;;;4995330;28;20206;-73
2023/03/26 06:46:52;;;;;;;2.97;2.17;;;7.10;99.90;;;;;;4996341;28;20226;-72
2023/03/26 06:49:17;;;;;;;4.53;2.50;;;7.10;99.90;;;;;;4996474;28;20206;-73
2023/03/26 06:51:45;;;;;;;4.97;2.30;;;7.30;99.90;;;;;;4995820;28;20671;-75
2023/03/26 06:54:10;;;;;;;5.30;1.67;;;7.50;99.90;;;;;;4969559;28;20279;-75
2023/03/26 06:56:36;;;;;;;4.33;1.60;;;7.60;99.90;;;;;;4975343;28;20665;-75
2023/03/26 06:59:01;;;;;;;3.50;1.50;;;7.70;99.90;;;;;;4976444;28;20201;-75
2023/03/26 07:01:27;;;;;;;1.70;1.50;;;7.70;99.90;;;;;;4992592;28;20199;-75
2023/03/26 07:03:52;;;;;;;1.27;1.00;;;7.90;99.90;;;;;;4996300;28;20258;-74
2023/03/26 07:06:18;;;;;;;3.07;1.13;;;8.00;99.90;;;;;;4995869;28;20203;-75
2023/03/26 07:08:43;;;;;;;3.77;1.30;;;8.00;99.90;;;;;;4995989;28;20243;-75
2023/03/26 07:11:09;;;;;;;2.97;1.60;;;7.90;99.90;;;;;;4993799;28;20312;-73
2023/03/26 07:13:35;;;;;;;5.40;1.80;;;7.90;99.90;;;;;;4996125;28;20520;-72
2023/03/26 07:16:00;;;;;;;4.37;1.30;;;8.00;99.90;;;;;;4995838;28;20257;-72
2023/03/26 07:18:26;;;;;;;1.60;1.00;;;8.10;99.90;;;;;;4995862;28;20745;-74
2023/03/26 07:20:52;;;;;;;5.00;3.77;;;8.30;99.90;;;;;;4995336;28;20212;-74
2023/03/26 07:23:19;;;;;;;2.73;1.40;;;8.40;99.90;;;;;;4994045;28;20235;-72
2023/03/26 07:25:47;;;;;;;1.67;1.57;;;8.50;99.90;;;;;;4977916;28;20208;-73
2023/03/26 07:28:39;;;;;;;4.60;2.20;;;8.60;99.90;;;;;;4976729;28;20224;-73
2023/03/26 07:31:16;;;;;;;2.77;1.30;;;8.70;99.90;;;;;;4992434;28;20361;-71
2023/03/26 07:33:47;;;;;;;2.57;1.27;;;8.70;99.90;;;;;;4995710;28;20223;-73
2023/03/26 07:36:36;;;;;;;5.77;1.20;;;8.70;99.90;;;;;;4995707;28;20795;-74
2023/03/26 07:39:41;;;;;;;6.67;1.63;;;8.70;99.90;;;;;;4993659;28;20204;-73
2023/03/26 07:42:26;;;;;;;6.33;1.90;;;8.60;99.90;;;;;;4995751;28;20677;-73
2023/03/26 07:45:20;;;;;;;2.77;1.20;;;8.70;99.90;;;;;;4994277;28;20210;-76
2023/03/26 07:47:48;;;;;;;4.93;1.20;;;8.60;99.90;;;;;;4985270;28;20598;-73
2023/03/26 07:50:18;;;;;;;5.67;1.60;;;8.60;99.90;;;;;;4988916;28;20251;-74
2023/03/26 07:52:44;;;;;;;8.83;2.07;;;8.60;99.90;;;;;;4988883;28;20266;-73
2023/03/26 07:55:14;;;;;;;3.80;1.70;;;8.50;99.90;;;;;;4988590;28;20208;-74
2023/03/26 07:58:12;;;;;;;3.30;1.20;;;8.50;99.90;;;;;;4988767;28;20216;-75
2023/03/26 08:00:55;;;;;;;4.00;1.10;;;8.60;99.90;;;;;;4968624;28;20559;-74
2023/03/26 08:03:34;;;;;;;2.60;1.23;;;8.70;99.90;;;;;;4988809;28;20201;-74
2023/03/26 08:06:14;;;;;;;1.20;1.10;;;8.80;99.90;;;;;;4989293;28;20302;-73
2023/03/26 08:08:58;;;;;;;7.13;1.57;;;8.90;99.90;;;;;;4997253;28;20219;-73
2023/03/26 08:11:42;;;;;;;5.77;1.50;;;9.00;99.90;;;;;;4996992;28;20787;-75
2023/03/26 08:14:31;;;;;;;2.27;1.33;;;9.00;99.90;;;;;;4998477;28;20216;-74
2023/03/26 08:17:13;;;;;;;4.73;1.47;;;8.90;99.90;;;;;;4995845;28;20261;-79
2023/03/26 08:20:10;;;;;;;8.47;1.57;;;8.80;99.90;;;;;;4980862;28;20291;-79
2023/03/26 08:22:49;;;;;;;2.30;1.20;;;8.80;99.90;;;;;;4979752;28;20201;-80
2023/03/26 08:25:28;;;;;;;5.33;1.47;;;8.90;99.90;;;;;;4979301;28;20209;-74
2023/03/26 08:28:16;;;;;;;4.13;1.87;;;8.90;99.90;;;;;;4980094;28;20271;-77
2023/03/26 08:30:42;;;;;;;3.10;1.87;;;9.00;99.90;;;;;;4979335;28;20745;-77
2023/03/26 08:33:10;;;;;;;5.43;1.63;;;8.90;99.90;;;;;;4991122;28;20208;-76
2023/03/26 08:35:40;;;;;;;3.33;1.80;;;8.90;99.90;;;;;;4994709;28;20204;-75
2023/03/26 08:38:13;;;;;;;6.60;2.57;;;9.10;99.90;;;;;;4979687;28;20291;-76
2023/03/26 08:41:08;;;;;;;7.20;1.90;;;9.10;99.90;;;;;;4979788;28;20201;-79
2023/03/26 08:44:15;;;;;;;4.03;1.83;;;9.00;99.90;;;;;;4996343;28;20200;-72
2023/03/26 08:47:09;;;;;;;4.67;1.83;;;9.00;99.90;;;;;;4997360;28;20211;-77
2023/03/26 08:50:12;;;;;;;4.93;1.93;;;9.00;99.90;;;;;;4997285;28;20539;-78
2023/03/26 08:53:01;;;;;;;6.30;2.83;;;9.20;99.90;;;;;;4989163;28;20208;-78
2023/03/26 08:55:54;;;;;;;8.43;2.13;;;9.30;99.90;;;;;;4979203;28;20197;-79
2023/03/26 08:58:41;;;;;;;3.50;1.73;;;9.30;99.90;;;;;;4987063;28;20690;-83
2023/03/26 09:01:30;;;;;;;4.23;2.00;;;9.30;99.90;;;;;;4997821;28;20297;-80
2023/03/26 09:04:30;;;;;;;5.73;1.87;;;9.40;99.90;;;;;;4998316;28;20544;-79
2023/03/26 09:07:32;;;;;;;3.00;1.80;;;9.40;99.90;;;;;;4984713;28;20212;-78
2023/03/26 09:10:07;;;;;;;4.00;1.93;;;9.40;99.90;;;;;;4991846;28;20200;-80
2023/03/26 09:12:45;;;;;;;5.17;1.90;;;9.30;99.90;;;;;;4987766;28;20223;-80
2023/03/26 09:15:50;;;;;;;2.10;1.73;;;9.30;99.90;;;;;;4985737;28;20686;-80
2023/03/26 09:18:44;;;;;;;1.90;1.33;;;9.30;99.90;;;;;;4987897;28;20198;-84
2023/03/26 09:21:26;;;;;;;5.57;2.03;;;9.00;99.90;;;;;;4988374;28;20296;-79
2023/03/26 09:24:08;;;;;;;6.13;1.90;;;8.70;99.90;;;;;;4987190;28;20200;-80
2023/03/26 09:26:53;;;;;;;5.80;1.37;;;8.40;99.90;;;;;;4988164;28;20216;-78
2023/03/26 09:29:47;;;;;;;7.97;2.37;;;8.00;99.90;;;;;;4985585;28;20204;-84
2023/03/26 09:32:24;;;;;;;5.07;1.77;;;7.50;99.90;;;;;;4987303;28;20228;-81
2023/03/26 09:35:22;;;;;;;4.37;1.50;;;7.30;99.90;;;;;;4986972;28;20224;-80
2023/03/26 09:38:18;;;;;;;4.57;1.10;;;7.20;99.90;;;;;;4969471;28;20668;-81
2023/03/26 09:41:00;;;;;;;1.47;1.43;;;7.00;99.90;;;;;;4952406;28;20216;-80
2023/03/26 09:43:59;;;;;;;2.30;1.80;;;7.10;99.90;;;;;;4989026;28;20208;-79
2023/03/26 09:46:42;;;;;;;1.43;1.30;;;7.20;99.90;;;;;;4988905;28;20215;-76
2023/03/26 09:49:20;;;;;;;3.30;1.80;;;7.20;99.90;;;;;;4986715;28;20234;-78
2023/03/26 09:52:02;;;;;;;4.07;2.17;;;7.10;99.90;;;;;;4989004;28;20204;-77
2023/03/26 09:54:47;;;;;;;3.17;1.63;;;7.20;99.90;;;;;;4985411;28;20193;-78
2023/03/26 09:57:44;;;;;;;5.73;2.83;;;7.30;99.90;;;;;;4986991;28;20227;-79
2023/03/26 10:00:27;;;;;;;4.23;2.17;;;7.60;99.90;;;;;;4968358;28;20208;-78
2023/03/26 10:03:26;;;;;;;3.37;1.83;;;8.00;99.90;;;;;;4987997;28;20210;-77
2023/03/26 10:05:58;;;;;;;4.83;1.67;;;8.10;99.90;;;;;;4988103;28;20815;-79
2023/03/26 10:08:44;;;;;;;6.83;1.67;;;8.10;99.90;;;;;;4985090;28;20208;-78
2023/03/26 10:11:17;;;;;;;2.67;1.90;;;8.20;99.90;;;;;;4983547;28;20200;-77
2023/03/26 10:13:59;;;;;;;4.27;2.13;;;8.50;99.90;;;;;;4985525;28;20219;-72
2023/03/26 10:16:45;;;;;;;6.30;2.10;;;8.50;99.90;;;;;;4987364;28;20232;-73
2023/03/26 10:19:39;;;;;;;4.57;1.80;;;8.40;99.90;;;;;;4986890;28;20227;-74
2023/03/26 10:22:47;;;;;;;6.67;2.77;;;8.30;99.90;;;;;;4987883;28;20226;-72
2023/03/26 10:25:25;;;;;;;3.03;1.83;;;8.30;99.90;;;;;;4987711;28;20199;-78
2023/03/26 10:28:29;;;;;;;2.90;1.80;;;8.20;99.90;;;;;;4986902;28;20220;-74
2023/03/26 10:31:18;;;;;;;3.70;2.23;;;8.40;99.90;;;;;;4926141;28;20216;-74
2023/03/26 10:34:26;;;;;;;6.30;1.90;;;8.60;99.90;;;;;;4984981;28;20219;-74
2023/03/26 10:37:30;;;;;;;2.07;1.60;;;8.50;99.90;;;;;;4985636;28;20993;-79
2023/03/26 10:40:09;;;;;;;3.00;1.90;;;8.60;99.90;;;;;;4985232;28;20982;-78
2023/03/26 10:42:53;;;;;;;3.40;1.57;;;8.60;99.90;;;;;;4985530;28;20245;-77
2023/03/26 10:45:30;;;;;;;7.47;2.83;;;8.60;99.90;;;;;;4984266;28;20252;-73
2023/03/26 10:48:24;;;;;;;4.57;1.77;;;9.00;99.90;;;;;;4983730;28;20216;-73
2023/03/26 10:51:20;;;;;;;6.07;2.07;;;9.30;99.90;;;;;;4983707;28;20197;-74
2023/03/26 10:54:12;;;;;;;2.50;2.27;;;9.60;99.90;;;;;;4984530;28;20374;-78
2023/03/26 10:56:45;;;;;;;4.33;2.10;;;9.60;99.90;;;;;;4984290;28;20254;-77
2023/03/26 10:59:16;;;;;;;5.20;2.43;;;9.80;99.90;;;;;;4983472;28;20207;-79
2023/03/26 11:01:56;;;;;;;5.73;1.90;;;9.90;99.90;;;;;;4988256;28;23264;-78
2023/03/26 11:04:40;;;;;;;4.10;2.20;;;10.00;99.90;;;;;;4985010;28;20208;-80
2023/03/26 11:07:10;;;;;;;4.80;1.80;;;10.10;99.90;;;;;;4984529;28;20702;-80
2023/03/26 11:10:01;;;;;;;5.93;1.87;;;10.40;99.90;;;;;;4986115;28;20208;-83
2023/03/26 11:12:49;;;;;;;3.87;1.80;;;10.50;99.90;;;;;;4985931;28;20200;-85
2023/03/26 11:15:23;;;;;;;2.70;1.80;;;10.60;99.90;;;;;;4986793;28;20201;-83
2023/03/26 11:17:59;;;;;;;6.47;2.13;;;11.10;99.90;;;;;;4986917;28;20692;-84
2023/03/26 11:20:35;;;;;;;7.47;2.43;;;11.40;99.90;;;;;;4996735;28;20204;-86
2023/03/26 11:23:33;;;;;;;6.27;2.37;;;11.30;99.90;;;;;;4992720;28;20214;-82
2023/03/26 11:26:35;;;;;;;5.03;1.90;;;11.10;99.90;;;;;;4999848;28;20576;-87
2023/03/26 11:29:24;;;;;;;3.90;2.03;;;10.80;99.90;;;;;;4999820;28;20216;-86
2023/03/26 11:32:05;;;;;;;2.93;1.63;;;11.00;99.90;;;;;;4994039;28;20232;-85
2023/03/26 11:34:39;;;;;;;3.47;1.70;;;11.50;99.90;;;;;;4993199;28;20225;-85
2023/03/26 11:37:14;;;;;;;4.37;2.20;;;11.90;99.90;;;;;;4990560;28;20214;-86
2023/03/26 11:39:51;;;;;;;3.30;1.80;;;11.80;99.90;;;;;;4992658;28;20193;-84
2023/03/26 11:42:21;;;;;;;6.03;2.20;;;12.00;99.90;;;;;;4991845;28;20548;-85
2023/03/26 11:44:57;;;;;;;5.57;2.30;;;12.00;99.90;;;;;;4990384;28;20205;-84
2023/03/26 11:47:34;;;;;;;5.63;2.20;;;11.90;99.90;;;;;;4984666;28;20220;-84
2023/03/26 11:50:02;;;;;;;4.20;2.20;;;11.70;99.90;;;;;;4987001;28;20284;-84
2023/03/26 11:52:28;;;;;;;7.37;2.77;;;11.60;99.90;;;;;;4988357;28;20209;-81
2023/03/26 11:54:58;;;;;;;3.40;2.33;;;11.70;99.90;;;;;;4994954;28;20219;-83
2023/03/26 11:57:32;;;;;;;3.33;1.87;;;11.80;99.90;;;;;;4993756;28;20253;-81
2023/03/26 12:00:14;;;;;;;5.13;2.70;;;12.10;99.90;;;;;;4988252;28;20208;-81
2023/03/26 12:02:40;;;;;;;6.40;2.30;;;12.40;99.90;;;;;;4988677;28;20202;-81
2023/03/26 12:05:25;;;;;;;4.00;2.23;;;12.10;99.90;;;;;;4988960;28;20197;-81
2023/03/26 12:08:03;;;;;;;7.23;2.47;;;11.50;99.90;;;;;;4991300;28;20721;-83
2023/03/26 12:10:38;;;;;;;5.77;2.50;;;11.30;99.90;;;;;;4991772;28;20289;-81
2023/03/26 12:13:34;;;;;;;4.70;2.30;;;11.60;99.90;;;;;;4987749;28;20290;-81
2023/03/26 12:16:09;;;;;;;5.30;2.00;;;12.10;99.90;;;;;;4990302;28;20195;-79
2023/03/26 12:18:37;;;;;;;3.77;2.20;;;12.70;99.90;;;;;;4989289;28;20217;-80
2023/03/26 12:21:09;;;;;;;6.57;2.10;;;13.00;99.90;;;;;;4994661;28;20278;-79
2023/03/26 12:23:43;;;;;;;2.23;1.87;;;13.40;99.90;;;;;;4992676;28;20199;-81
2023/03/26 12:26:17;;;;;;;3.10;1.63;;;13.70;99.90;;;;;;4987634;28;20576;-79
2023/03/26 12:28:50;;;;;;;3.50;2.13;;;13.20;99.90;;;;;;4991147;28;20236;-79
2023/03/26 12:31:17;;;;;;;3.33;1.73;;;12.40;99.90;;;;;;4990007;28;20204;-79
2023/03/26 12:33:51;;;;;;;4.33;1.67;;;12.00;99.90;;;;;;4987179;28;20589;-81
2023/03/26 12:36:25;;;;;;;3.43;2.20;;;11.80;99.90;;;;;;4986935;28;20203;-80
2023/03/26 12:38:51;;;;;;;5.83;1.97;;;12.10;99.90;;;;;;4983899;28;20206;-80
2023/03/26 12:41:19;;;;;;;4.57;2.37;;;12.50;99.90;;;;;;4985483;28;20218;-79
2023/03/26 12:43:50;;;;;;;3.40;1.47;;;12.90;99.90;;;;;;4986658;28;20314;-77
2023/03/26 12:46:29;;;;;;;4.33;1.80;;;13.50;99.90;;;;;;4997959;28;20219;-76
2023/03/26 12:48:58;;;;;;;5.53;1.37;;;14.10;99.90;;;;;;4992593;28;20223;-79
2023/03/26 12:51:46;;;;;;;5.53;1.73;;;15.00;99.10;;;;;;4988594;28;20215;-79
2023/03/26 12:54:47;;;;;;;3.83;1.50;;;14.20;99.10;;;;;;4988531;28;20569;-78
2023/03/26 12:57:19;;;;;;;3.47;1.80;;;12.90;99.90;;;;;;4993422;28;20556;-79
2023/03/26 12:59:59;;;;;;;3.73;1.50;;;12.50;99.90;;;;;;4977661;28;20287;-79
2023/03/26 13:02:47;;;;;;;2.57;1.60;;;12.60;99.90;;;;;;4978590;28;20211;-77
2023/03/26 13:05:46;;;;;;;1.70;0.93;;;12.70;99.90;;;;;;4978212;28;20531;-78
2023/03/26 13:08:32;;;;;;;1.77;1.00;;;12.60;99.90;;;;;;4995154;28;20249;-76
2023/03/26 13:11:25;;;;;;;5.70;1.40;;;12.50;99.90;;;;;;4987347;28;20764;-78
2023/03/26 13:13:56;;;;;;;1.57;1.47;;;12.60;99.90;;;;;;4988363;28;20204;-78
2023/03/26 13:16:35;;;;;;;3.13;1.13;;;12.90;99.90;;;;;;4988420;28;21081;-76
2023/03/26 13:19:10;;;;;;;2.40;1.30;;;13.50;99.90;;;;;;4985285;28;20767;-73
2023/03/26 13:21:48;;;;;;;6.60;1.40;;;14.00;98.90;;;;;;4989942;28;20229;-76
2023/03/26 13:24:30;;;;;;;4.23;1.30;;;14.60;97.00;;;;;;4988176;28;20212;-74
2023/03/26 13:27:19;;;;;;;3.13;1.00;;;14.50;97.20;;;;;;4988935;28;20341;-74
2023/03/26 13:30:20;;;;;;;4.43;0.93;;;13.60;98.10;;;;;;4985946;28;20265;-73
2023/03/26 13:33:01;;;;;;;2.73;0.97;;;12.80;98.50;;;;;;4987164;28;20594;-77